Time;durP1;ratioP1;P1;durP2;ratioP2;P2;SDS_P1;SDS_P2;PMS_P1;PMS_P2;Temp;Humidity;BMP_temperature;BMP_pressure;BME280_temperature;BME280_humidity;BME280_pressure;Samples;Min_cycle;Max_cycle;Signal;HPM_P1;HPM_P2
2022/02/11 00:02:12;;;;;;;3.25;2.88;;;;;;;;;;5044837;28;20036;-60
2022/02/11 00:07:17;;;;;;;3.72;3.33;;;;;;;;;;5035035;28;20033;-62
2022/02/11 00:09:42;;;;;;;4.07;3.20;;;;;;;;;;5039818;28;20033;-61
2022/02/11 00:12:08;;;;;;;4.65;3.40;;;;;;;;;;5046403;28;20029;-61
2022/02/11 00:14:47;;;;;;;3.15;2.75;;;;;;;;;;5034925;28;20037;-62
2022/02/11 00:17:14;;;;;;;4.78;3.75;;;;;;;;;;5030002;28;20052;-62
2022/02/11 00:19:39;;;;;;;4.75;3.60;;;;;;;;;;5036548;28;20018;-62
2022/02/11 00:22:04;;;;;;;4.78;4.22;;;;;;;;;;5032190;28;20026;-62
2022/02/11 00:24:30;;;;;;;5.28;4.60;;;;;;;;;;5025601;28;20017;-62
2022/02/11 00:27:25;;;;;;;5.10;4.22;;;;;;;;;;5033842;28;20022;-62
2022/02/11 00:32:21;;;;;;;4.15;3.45;;;;;;;;;;5038500;28;20056;-62
2022/02/11 00:34:52;;;;;;;3.47;2.90;;;;;;;;;;5042843;28;20029;-62
2022/02/11 00:37:22;;;;;;;4.10;3.30;;;;;;;;;;5040739;28;20044;-62
2022/02/11 00:40:07;;;;;;;5.53;3.67;;;;;;;;;;5040006;28;20060;-63
2022/02/11 01:06:20;;;;;;;3.00;2.30;;;;;;;;;;5032766;28;20032;-62
2022/02/11 01:08:46;;;;;;;3.60;2.50;;;;;;;;;;5033481;28;20017;-62
2022/02/11 01:11:17;;;;;;;2.42;2.22;;;;;;;;;;5031458;28;20425;-61
2022/02/11 01:13:43;;;;;;;3.38;2.67;;;;;;;;;;5049809;28;20025;-62
2022/02/11 01:16:14;;;;;;;2.80;2.30;;;;;;;;;;5032636;28;20079;-62
2022/02/11 01:18:43;;;;;;;3.13;2.83;;;;;;;;;;5033105;28;20375;-62
2022/02/11 01:21:15;;;;;;;2.42;2.22;;;;;;;;;;5032016;28;20033;-62
2022/02/11 01:23:54;;;;;;;2.50;2.13;;;;;;;;;;5036277;28;20127;-61
2022/02/11 01:37:23;;;;;;;3.00;1.70;;;;;;;;;;5013728;28;20080;-61
2022/02/11 01:45:24;;;;;;;1.98;1.48;;;;;;;;;;5032876;28;20040;-62
2022/02/11 02:06:32;;;;;;;1.63;0.88;;;;;;;;;;5014894;28;20067;-61
2022/02/11 02:12:29;;;;;;;2.40;1.10;;;;;;;;;;5014017;28;20296;-62
2022/02/11 02:16:08;;;;;;;2.35;1.25;;;;;;;;;;5028387;28;20059;-62
2022/02/11 02:21:19;;;;;;;1.27;1.17;;;;;;;;;;5016428;28;20490;-61
2022/02/11 02:23:59;;;;;;;2.22;1.70;;;;;;;;;;5021413;28;20034;-62
2022/02/11 02:26:17;;;;;;;2.40;1.90;;;;;;;;;;5019100;28;20160;-62
2022/02/11 02:50:20;;;;;;;2.55;2.17;;;;;;;;;;5043527;28;20527;-62
2022/02/11 02:58:24;;;;;;;2.58;2.38;;;;;;;;;;5038871;28;20100;-60
2022/02/11 03:17:35;;;;;;;4.20;3.53;;;;;;;;;;5031659;28;20033;-62
2022/02/11 04:22:14;;;;;;;7.03;4.90;;;;;;;;;;5037484;28;20039;-61
2022/02/11 04:25:41;;;;;;;6.35;5.20;;;;;;;;;;5043820;28;20043;-62
2022/02/11 04:28:32;;;;;;;6.03;4.95;;;;;;;;;;5034973;28;20022;-63
2022/02/11 04:55:06;;;;;;;7.57;6.15;;;;;;;;;;5030387;28;20069;-60
2022/02/11 05:00:16;;;;;;;6.47;5.15;;;;;;;;;;5030946;28;20124;-62
2022/02/11 05:02:42;;;;;;;7.22;4.60;;;;;;;;;;5014242;28;20120;-62
2022/02/11 05:05:08;;;;;;;7.20;4.53;;;;;;;;;;5030199;28;20037;-62
2022/02/11 05:07:34;;;;;;;7.07;4.32;;;;;;;;;;5041614;28;20194;-61
2022/02/11 05:09:59;;;;;;;7.50;4.63;;;;;;;;;;5040209;28;20029;-62
2022/02/11 05:12:25;;;;;;;5.63;4.03;;;;;;;;;;5041549;28;20078;-62
2022/02/11 05:14:50;;;;;;;4.93;3.42;;;;;;;;;;5042078;28;20093;-63
2022/02/11 05:17:15;;;;;;;5.15;3.60;;;;;;;;;;5033786;28;20033;-61
2022/02/11 05:19:40;;;;;;;3.60;2.63;;;;;;;;;;5035955;28;20032;-62
2022/02/11 05:22:05;;;;;;;5.95;3.55;;;;;;;;;;5032702;28;20030;-61
2022/02/11 05:24:31;;;;;;;5.25;3.40;;;;;;;;;;5021240;28;20430;-62
2022/02/11 05:26:56;;;;;;;6.53;4.47;;;;;;;;;;5021446;28;20055;-62
2022/02/11 05:29:21;;;;;;;5.50;3.58;;;;;;;;;;5044871;28;20029;-62
2022/02/11 05:31:47;;;;;;;5.95;3.72;;;;;;;;;;5031697;28;20071;-61
2022/02/11 05:34:12;;;;;;;4.20;2.53;;;;;;;;;;5039832;28;20354;-62
2022/02/11 05:36:37;;;;;;;3.05;1.83;;;;;;;;;;5032821;28;20478;-62
2022/02/11 05:39:03;;;;;;;4.22;2.28;;;;;;;;;;5032140;28;20135;-62
2022/02/11 05:41:28;;;;;;;2.00;1.20;;;;;;;;;;5038780;28;20028;-63
2022/02/11 05:43:53;;;;;;;1.57;0.60;;;;;;;;;;5048874;28;20025;-62
2022/02/11 05:46:20;;;;;;;0.80;0.30;;;;;;;;;;5031262;28;20101;-63
2022/02/11 05:48:45;;;;;;;1.73;0.20;;;;;;;;;;5031725;28;20494;-63
2022/02/11 05:51:10;;;;;;;1.50;0.20;;;;;;;;;;5028158;28;20552;-62
2022/02/11 05:53:36;;;;;;;2.73;0.20;;;;;;;;;;5042912;28;20060;-61
2022/02/11 05:56:01;;;;;;;0.40;0.10;;;;;;;;;;5022254;28;20061;-63
2022/02/11 05:58:27;;;;;;;0.70;0.17;;;;;;;;;;5030238;28;20033;-62
2022/02/11 06:00:53;;;;;;;0.37;0.10;;;;;;;;;;5031560;28;20399;-62
2022/02/11 06:03:18;;;;;;;1.10;0.10;;;;;;;;;;5031396;28;20026;-61
2022/02/11 06:05:43;;;;;;;0.10;0.07;;;;;;;;;;5032067;28;20013;-62
2022/02/11 06:08:08;;;;;;;0.10;0.00;;;;;;;;;;5030945;28;20493;-63
2022/02/11 06:10:33;;;;;;;0.37;0.13;;;;;;;;;;5031821;28;20029;-63
2022/02/11 06:12:59;;;;;;;0.50;0.10;;;;;;;;;;5031938;28;20048;-63
2022/02/11 06:15:24;;;;;;;0.37;0.10;;;;;;;;;;5031744;28;20056;-63
2022/02/11 06:17:49;;;;;;;0.20;0.10;;;;;;;;;;5031398;28;20394;-63
2022/02/11 06:20:14;;;;;;;0.77;0.10;;;;;;;;;;5030927;28;20041;-62
2022/02/11 06:22:43;;;;;;;0.83;0.20;;;;;;;;;;5025705;28;20030;-66
2022/02/11 06:25:09;;;;;;;0.80;0.20;;;;;;;;;;5034048;28;20029;-65
2022/02/11 06:27:34;;;;;;;0.53;0.33;;;;;;;;;;5031283;28;20075;-64
2022/02/11 06:29:59;;;;;;;1.53;0.20;;;;;;;;;;5034896;28;20021;-65
2022/02/11 06:32:24;;;;;;;0.40;0.30;;;;;;;;;;5033280;28;20467;-65
2022/02/11 06:34:52;;;;;;;0.30;0.20;;;;;;;;;;5033203;28;20014;-66
2022/02/11 06:37:17;;;;;;;0.60;0.30;;;;;;;;;;5029380;28;20079;-66
2022/02/11 06:39:42;;;;;;;0.60;0.30;;;;;;;;;;5045745;28;20022;-64
2022/02/11 06:42:07;;;;;;;0.87;0.53;;;;;;;;;;5033383;28;20096;-65
2022/02/11 06:44:32;;;;;;;0.90;0.80;;;;;;;;;;5030449;28;20029;-66
2022/02/11 06:46:58;;;;;;;0.83;0.40;;;;;;;;;;5029083;28;20022;-65
2022/02/11 06:49:23;;;;;;;0.53;0.53;;;;;;;;;;5026338;28;20117;-66
2022/02/11 06:51:48;;;;;;;0.80;0.80;;;;;;;;;;5025787;28;20407;-64
2022/02/11 06:54:13;;;;;;;2.20;1.50;;;;;;;;;;5026993;28;20409;-66
2022/02/11 06:56:38;;;;;;;2.60;2.00;;;;;;;;;;5030025;28;20045;-65
2022/02/11 06:59:04;;;;;;;2.77;2.43;;;;;;;;;;5033726;28;20061;-66
2022/02/11 07:01:29;;;;;;;2.63;2.10;;;;;;;;;;5032913;28;20025;-65
2022/02/11 07:03:54;;;;;;;3.10;1.90;;;;;;;;;;5030492;28;20014;-65
2022/02/11 07:06:20;;;;;;;3.30;2.30;;;;;;;;;;5031128;28;20044;-65
2022/02/11 07:08:45;;;;;;;4.80;2.80;;;;;;;;;;5030451;28;20021;-65
2022/02/11 07:11:10;;;;;;;2.60;2.17;;;;;;;;;;5030530;28;20025;-66
2022/02/11 07:13:35;;;;;;;3.10;2.03;;;;;;;;;;5037906;28;20091;-65
2022/02/11 07:16:01;;;;;;;7.50;2.53;;;;;;;;;;5025117;28;20013;-65
2022/02/11 07:18:26;;;;;;;3.57;1.60;;;;;;;;;;5028029;28;20017;-66
2022/02/11 07:20:51;;;;;;;2.30;1.87;;;;;;;;;;5025966;28;20624;-65
2022/02/11 07:23:16;;;;;;;3.13;1.60;;;;;;;;;;5016967;28;20116;-65
2022/02/11 07:25:42;;;;;;;3.30;2.13;;;;;;;;;;5016907;28;20028;-66
2022/02/11 07:28:07;;;;;;;4.50;2.80;;;;;;;;;;5011028;28;20033;-65
2022/02/11 07:30:33;;;;;;;7.07;3.77;;;;;;;;;;5022135;28;20032;-65
2022/02/11 07:32:58;;;;;;;6.07;3.70;;;;;;;;;;5030861;28;20029;-65
2022/02/11 07:35:24;;;;;;;8.67;3.40;;;;;;;;;;5030898;28;20048;-66
2022/02/11 07:37:50;;;;;;;5.47;3.20;;;;;;;;;;5027144;28;20524;-66
2022/02/11 07:40:15;;;;;;;6.17;3.07;;;;;;;;;;5020036;28;20064;-65
2022/02/11 07:42:42;;;;;;;8.20;3.00;;;;;;;;;;5024523;28;20014;-67
2022/02/11 07:45:07;;;;;;;5.67;2.60;;;;;;;;;;5051666;28;20013;-65
2022/02/11 07:47:32;;;;;;;5.77;2.53;;;;;;;;;;5053679;28;20050;-65
2022/02/11 07:49:59;;;;;;;6.60;2.17;;;;;;;;;;5036009;28;20026;-64
2022/02/11 07:52:24;;;;;;;8.93;3.07;;;;;;;;;;5023309;28;20064;-68
2022/02/11 07:54:50;;;;;;;7.33;3.53;;;;;;;;;;5025286;28;20486;-66
2022/02/11 07:57:15;;;;;;;6.97;2.93;;;;;;;;;;5043639;28;20494;-65
2022/02/11 07:59:40;;;;;;;8.43;3.10;;;;;;;;;;5033889;28;20029;-64
2022/02/11 08:02:05;;;;;;;7.63;3.37;;;;;;;;;;5033815;28;20030;-66
2022/02/11 08:04:32;;;;;;;6.13;2.53;;;;;;;;;;5030806;28;20512;-65
2022/02/11 08:06:57;;;;;;;4.00;1.87;;;;;;;;;;5031635;28;20025;-64
2022/02/11 08:09:23;;;;;;;5.20;2.13;;;;;;;;;;5054771;28;20028;-66
2022/02/11 08:11:48;;;;;;;3.50;1.70;;;;;;;;;;5031806;28;20025;-65
2022/02/11 08:14:13;;;;;;;5.70;1.87;;;;;;;;;;5030788;28;20028;-65
2022/02/11 08:16:38;;;;;;;7.17;2.50;;;;;;;;;;5019688;28;20041;-65
2022/02/11 08:19:06;;;;;;;6.23;2.37;;;;;;;;;;5044931;28;20036;-66
2022/02/11 08:21:31;;;;;;;6.03;3.20;;;;;;;;;;5023183;28;20033;-66
2022/02/11 08:23:56;;;;;;;5.60;2.83;;;;;;;;;;5022853;28;20033;-65
2022/02/11 08:26:22;;;;;;;6.47;2.10;;;;;;;;;;5026843;28;20026;-65
2022/02/11 08:28:47;;;;;;;5.97;2.83;;;;;;;;;;5025615;28;20391;-65
2022/02/11 08:31:12;;;;;;;9.83;3.90;;;;;;;;;;5018102;28;20467;-65
2022/02/11 08:33:37;;;;;;;11.90;3.47;;;;;;;;;;5017273;28;20036;-66
2022/02/11 08:36:04;;;;;;;8.50;3.73;;;;;;;;;;5024284;28;20030;-66
2022/02/11 08:38:29;;;;;;;10.33;4.27;;;;;;;;;;5026947;28;20037;-65
2022/02/11 08:40:54;;;;;;;8.97;4.93;;;;;;;;;;5038148;28;20018;-63
2022/02/11 08:43:21;;;;;;;14.90;5.47;;;;;;;;;;5029681;28;20041;-64
2022/02/11 08:45:47;;;;;;;9.47;5.07;;;;;;;;;;5027754;28;20022;-65
2022/02/11 08:48:13;;;;;;;12.73;6.75;;;;;;;;;;5027657;28;20398;-65
2022/02/11 08:50:39;;;;;;;16.83;6.40;;;;;;;;;;5023137;28;20037;-66
2022/02/11 08:53:06;;;;;;;11.70;6.87;;;;;;;;;;5016435;28;20026;-65
2022/02/11 08:55:31;;;;;;;12.77;6.60;;;;;;;;;;5036821;28;20072;-65
2022/02/11 08:57:59;;;;;;;10.60;5.85;;;;;;;;;;5026143;28;20030;-66
2022/02/11 09:00:25;;;;;;;6.90;4.65;;;;;;;;;;5028566;28;20116;-65
2022/02/11 09:02:50;;;;;;;9.50;5.57;;;;;;;;;;5028180;28;20029;-66
2022/02/11 09:05:15;;;;;;;8.40;5.13;;;;;;;;;;5027745;28;20465;-65
2022/02/11 09:07:41;;;;;;;10.40;5.97;;;;;;;;;;5027367;28;20025;-65
2022/02/11 09:10:07;;;;;;;10.37;6.53;;;;;;;;;;5023543;28;20446;-63
2022/02/11 09:12:33;;;;;;;9.25;4.85;;;;;;;;;;5020771;28;20022;-63
2022/02/11 09:14:58;;;;;;;8.10;5.20;;;;;;;;;;5035555;28;20405;-65
2022/02/11 09:17:23;;;;;;;7.40;4.70;;;;;;;;;;5026720;28;20112;-64
2022/02/11 09:19:50;;;;;;;11.48;5.35;;;;;;;;;;5029201;28;20040;-64
2022/02/11 09:22:16;;;;;;;6.47;4.13;;;;;;;;;;5014238;28;20030;-64
2022/02/11 09:24:41;;;;;;;7.32;4.28;;;;;;;;;;5022859;28;20028;-64
2022/02/11 09:27:06;;;;;;;5.43;3.65;;;;;;;;;;5022264;28;20425;-65
2022/02/11 09:29:32;;;;;;;6.78;4.70;;;;;;;;;;5020429;28;20056;-66
2022/02/11 09:31:57;;;;;;;9.70;4.40;;;;;;;;;;5026621;28;20072;-64
2022/02/11 09:34:22;;;;;;;9.45;5.35;;;;;;;;;;5014348;28;20390;-64
2022/02/11 09:36:47;;;;;;;7.68;5.20;;;;;;;;;;5019270;28;20447;-63
2022/02/11 09:39:14;;;;;;;10.00;4.55;;;;;;;;;;5027240;28;20539;-64
2022/02/11 09:41:39;;;;;;;9.80;5.43;;;;;;;;;;5028939;28;20037;-64
2022/02/11 09:44:05;;;;;;;9.70;5.00;;;;;;;;;;5020866;28;20372;-65
2022/02/11 09:46:31;;;;;;;7.53;4.97;;;;;;;;;;5018603;28;20030;-64
2022/02/11 09:48:57;;;;;;;5.60;3.95;;;;;;;;;;5026382;28;20501;-63
2022/02/11 09:51:22;;;;;;;6.13;4.20;;;;;;;;;;5023451;28;20033;-63
2022/02/11 09:53:48;;;;;;;6.50;4.38;;;;;;;;;;5021951;28;20026;-63
2022/02/11 09:56:14;;;;;;;7.97;4.05;;;;;;;;;;5021007;28;20025;-63
2022/02/11 09:58:39;;;;;;;4.78;3.58;;;;;;;;;;5021691;28;20451;-64
2022/02/11 10:01:05;;;;;;;7.13;4.40;;;;;;;;;;5026638;28;20486;-64
2022/02/11 10:03:31;;;;;;;6.20;4.30;;;;;;;;;;5026108;28;20136;-64
2022/02/11 10:05:57;;;;;;;6.20;3.97;;;;;;;;;;5030892;28;20104;-63
2022/02/11 10:08:26;;;;;;;6.97;3.70;;;;;;;;;;5028167;28;20026;-65
2022/02/11 10:10:52;;;;;;;6.87;4.60;;;;;;;;;;5025361;28;20036;-63
2022/02/11 10:13:25;;;;;;;5.87;4.40;;;;;;;;;;5028801;28;20030;-63
2022/02/11 10:15:57;;;;;;;7.43;5.13;;;;;;;;;;5032345;28;20107;-63
2022/02/11 10:18:30;;;;;;;7.43;4.03;;;;;;;;;;5028646;28;20022;-63
2022/02/11 10:20:56;;;;;;;8.63;4.47;;;;;;;;;;5029984;28;20029;-63
2022/02/11 10:23:23;;;;;;;6.03;4.63;;;;;;;;;;5008890;28;20056;-63
2022/02/11 10:26:08;;;;;;;7.67;5.23;;;;;;;;;;5029765;28;20087;-63
2022/02/11 10:28:37;;;;;;;6.13;3.93;;;;;;;;;;5018224;28;20017;-63
2022/02/11 10:31:15;;;;;;;5.20;3.60;;;;;;;;;;5013943;28;20026;-64
2022/02/11 10:33:47;;;;;;;6.20;4.30;;;;;;;;;;5024087;28;20492;-63
2022/02/11 10:36:16;;;;;;;6.60;4.77;;;;;;;;;;5019875;28;20034;-63
2022/02/11 10:38:41;;;;;;;8.18;5.13;;;;;;;;;;5011621;28;20026;-64
2022/02/11 10:41:06;;;;;;;2.75;1.52;;;;;;;;;;5022325;28;20146;-63
2022/02/11 10:43:32;;;;;;;6.40;3.47;;;;;;;;;;5028186;28;20029;-62
2022/02/11 10:46:01;;;;;;;5.60;2.73;;;;;;;;;;5014122;28;20105;-64
2022/02/11 10:48:27;;;;;;;7.17;3.60;;;;;;;;;;5016299;28;20026;-63
2022/02/11 10:50:52;;;;;;;7.43;4.23;;;;;;;;;;5016158;28;20083;-62
2022/02/11 10:53:44;;;;;;;6.32;4.20;;;;;;;;;;5013543;28;20025;-63
2022/02/11 10:56:12;;;;;;;4.22;3.38;;;;;;;;;;5024245;28;20418;-63
2022/02/11 10:58:39;;;;;;;6.35;3.45;;;;;;;;;;5016531;28;20030;-63
2022/02/11 11:01:05;;;;;;;6.25;3.10;;;;;;;;;;5023220;28;20390;-63
2022/02/11 11:03:33;;;;;;;6.20;3.33;;;;;;;;;;5014090;28;20470;-62
2022/02/11 11:05:59;;;;;;;5.18;3.53;;;;;;;;;;5028224;28;20025;-63
2022/02/11 11:08:24;;;;;;;5.68;3.42;;;;;;;;;;5024493;28;20120;-63
2022/02/11 11:10:49;;;;;;;7.32;3.65;;;;;;;;;;5031509;28;20025;-63
2022/02/11 11:13:16;;;;;;;5.50;2.85;;;;;;;;;;5029024;28;20462;-62
2022/02/11 11:15:42;;;;;;;6.88;3.08;;;;;;;;;;5030166;28;20032;-63
2022/02/11 11:18:10;;;;;;;4.45;2.78;;;;;;;;;;5020018;28;20034;-62
2022/02/11 11:20:36;;;;;;;5.57;3.33;;;;;;;;;;5043016;28;20121;-63
2022/02/11 11:23:03;;;;;;;5.28;3.03;;;;;;;;;;5014332;28;20109;-62
2022/02/11 11:25:52;;;;;;;6.00;3.10;;;;;;;;;;5021401;28;20505;-62
2022/02/11 11:28:35;;;;;;;5.00;3.35;;;;;;;;;;5026774;28;20090;-64
2022/02/11 11:31:07;;;;;;;5.00;3.08;;;;;;;;;;5030859;28;20032;-62
2022/02/11 11:33:33;;;;;;;5.60;3.42;;;;;;;;;;5026752;28;20470;-62
2022/02/11 11:36:00;;;;;;;3.90;2.85;;;;;;;;;;5027253;28;20040;-62
2022/02/11 11:38:34;;;;;;;4.85;3.40;;;;;;;;;;5030141;28;20025;-62
2022/02/11 11:40:59;;;;;;;5.13;3.30;;;;;;;;;;5032147;28;20029;-63
2022/02/11 11:43:31;;;;;;;7.18;3.70;;;;;;;;;;5032888;28;20026;-63
2022/02/11 11:46:22;;;;;;;5.40;3.08;;;;;;;;;;5030628;28;20013;-61
2022/02/11 11:48:51;;;;;;;7.43;4.07;;;;;;;;;;5034049;28;20075;-62
2022/02/11 11:51:16;;;;;;;5.75;3.78;;;;;;;;;;5026765;28;20317;-63
2022/02/11 11:53:42;;;;;;;4.47;2.53;;;;;;;;;;5018218;28;20026;-62
2022/02/11 11:56:29;;;;;;;5.35;3.35;;;;;;;;;;5030326;28;20041;-58
2022/02/11 11:58:55;;;;;;;3.67;3.30;;;;;;;;;;5032275;28;20017;-62
2022/02/11 12:01:20;;;;;;;7.45;3.80;;;;;;;;;;5039502;28;20037;-63
2022/02/11 12:04:15;;;;;;;5.90;3.55;;;;;;;;;;5034892;28;20044;-63
2022/02/11 12:06:40;;;;;;;7.57;3.37;;;;;;;;;;5033450;28;20517;-62
2022/02/11 12:09:06;;;;;;;5.78;3.92;;;;;;;;;;5032991;28;20500;-62
2022/02/11 12:11:31;;;;;;;8.73;4.93;;;;;;;;;;5029250;28;20040;-62
2022/02/11 12:13:58;;;;;;;6.80;4.82;;;;;;;;;;5031296;28;20394;-62
2022/02/11 12:16:24;;;;;;;7.50;4.15;;;;;;;;;;5029779;28;20049;-62
2022/02/11 12:18:50;;;;;;;8.30;4.97;;;;;;;;;;5029343;28;20505;-63
2022/02/11 12:21:16;;;;;;;9.35;3.70;;;;;;;;;;5027120;28;20041;-62
2022/02/11 12:29:10;;;;;;;5.28;2.90;;;;;;;;;;5031189;28;20029;-62
2022/02/11 12:31:35;;;;;;;3.53;3.20;;;;;;;;;;5026972;28;20037;-61
2022/02/11 12:34:16;;;;;;;4.53;2.78;;;;;;;;;;5033827;28;20437;-63
2022/02/11 12:36:42;;;;;;;3.85;2.80;;;;;;;;;;5022369;28;20486;-63
2022/02/11 12:39:07;;;;;;;6.35;3.53;;;;;;;;;;5030339;28;20025;-61
2022/02/11 12:41:43;;;;;;;5.43;3.55;;;;;;;;;;5026496;28;20025;-62
2022/02/11 12:44:09;;;;;;;3.92;3.10;;;;;;;;;;5029446;28;20036;-64
2022/02/11 12:46:34;;;;;;;4.85;4.35;;;;;;;;;;5032787;28;20014;-62
2022/02/11 12:48:59;;;;;;;4.40;3.40;;;;;;;;;;5032717;28;20021;-62
2022/02/11 12:51:24;;;;;;;5.57;3.58;;;;;;;;;;5024681;28;20033;-61
2022/02/11 12:54:01;;;;;;;5.82;3.67;;;;;;;;;;5028620;28;20026;-62
2022/02/11 12:56:31;;;;;;;5.03;3.50;;;;;;;;;;5042716;28;20071;-62
2022/02/11 12:59:06;;;;;;;6.03;3.28;;;;;;;;;;5028007;28;20641;-62
2022/02/11 13:01:31;;;;;;;4.35;3.28;;;;;;;;;;5027545;28;20088;-62
2022/02/11 13:03:57;;;;;;;4.68;3.58;;;;;;;;;;5030756;28;20037;-60
2022/02/11 13:06:22;;;;;;;3.88;3.10;;;;;;;;;;5029425;28;20217;-62
2022/02/11 13:08:47;;;;;;;3.55;2.53;;;;;;;;;;5027749;28;20504;-59
2022/02/11 13:11:16;;;;;;;5.00;2.97;;;;;;;;;;5028996;28;20032;-63
2022/02/11 13:13:42;;;;;;;4.72;2.47;;;;;;;;;;5032919;28;20112;-64
2022/02/11 13:16:07;;;;;;;3.58;2.65;;;;;;;;;;5032836;28;20160;-64
2022/02/11 13:18:35;;;;;;;4.97;3.50;;;;;;;;;;5026259;28;20028;-63
2022/02/11 13:21:05;;;;;;;4.43;3.20;;;;;;;;;;5028367;28;20509;-62
2022/02/11 13:23:31;;;;;;;4.90;3.30;;;;;;;;;;5025702;28;20028;-62
2022/02/11 13:25:57;;;;;;;5.15;2.63;;;;;;;;;;5030157;28;20433;-63
2022/02/11 13:28:23;;;;;;;7.60;3.70;;;;;;;;;;5031536;28;20021;-65
2022/02/11 13:30:54;;;;;;;5.38;3.35;;;;;;;;;;5026211;28;21509;-63
2022/02/11 13:33:26;;;;;;;4.80;3.28;;;;;;;;;;5025550;28;20025;-65
2022/02/11 13:35:53;;;;;;;6.68;3.67;;;;;;;;;;5024403;28;20068;-63
2022/02/11 13:38:23;;;;;;;5.18;3.28;;;;;;;;;;5029534;28;20022;-62
2022/02/11 13:41:08;;;;;;;4.53;3.67;;;;;;;;;;5026125;28;20112;-63
2022/02/11 13:43:55;;;;;;;5.05;3.75;;;;;;;;;;5024624;28;20112;-63
2022/02/11 13:46:30;;;;;;;6.00;3.85;;;;;;;;;;5028442;28;20355;-62
2022/02/11 13:48:55;;;;;;;;;;;;;;;;;;5031311;28;20224;-63
2022/02/11 13:51:21;;;;;;;4.68;2.70;;;;;;;;;;5020074;28;19967;-63
2022/02/11 13:53:56;;;;;;;5.13;3.80;;;;;;;;;;5021542;28;20041;-62
2022/02/11 13:56:22;;;;;;;8.43;3.55;;;;;;;;;;5030745;28;20021;-62
2022/02/11 13:59:06;;;;;;;4.97;2.75;;;;;;;;;;5035241;28;20040;-62
2022/02/11 14:01:32;;;;;;;4.57;2.90;;;;;;;;;;5015124;28;20029;-63
2022/02/11 14:03:59;;;;;;;7.20;3.03;;;;;;;;;;5012784;28;20033;-62
2022/02/11 14:06:24;;;;;;;5.30;3.15;;;;;;;;;;5012676;28;20025;-63
2022/02/11 14:08:50;;;;;;;4.32;2.90;;;;;;;;;;5022133;28;20382;-63
2022/02/11 14:11:19;;;;;;;6.57;3.30;;;;;;;;;;5017506;28;20022;-63
2022/02/11 14:13:44;;;;;;;5.15;3.88;;;;;;;;;;5032103;28;20017;-63
2022/02/11 14:16:10;;;;;;;5.85;3.50;;;;;;;;;;5032033;28;20134;-62
2022/02/11 14:18:37;;;;;;;7.35;4.18;;;;;;;;;;5030647;28;20018;-62
2022/02/11 14:21:03;;;;;;;4.43;3.00;;;;;;;;;;5027394;28;20053;-63
2022/02/11 14:23:29;;;;;;;5.82;3.30;;;;;;;;;;5017233;28;20506;-64
2022/02/11 14:25:55;;;;;;;5.95;4.43;;;;;;;;;;5022362;28;20018;-63
2022/02/11 14:28:23;;;;;;;8.85;3.75;;;;;;;;;;5020451;28;20418;-62
2022/02/11 14:30:48;;;;;;;7.32;4.35;;;;;;;;;;5028405;28;20090;-62
2022/02/11 14:33:14;;;;;;;5.25;3.45;;;;;;;;;;5030636;28;20483;-64
2022/02/11 14:35:39;;;;;;;6.13;4.05;;;;;;;;;;5040991;28;20013;-65
2022/02/11 14:38:05;;;;;;;9.15;4.70;;;;;;;;;;5030229;28;20037;-63
2022/02/11 14:40:33;;;;;;;6.18;4.13;;;;;;;;;;5025955;28;20501;-65
2022/02/11 14:43:04;;;;;;;6.35;4.22;;;;;;;;;;5020344;28;20787;-62
2022/02/11 14:45:30;;;;;;;7.82;4.78;;;;;;;;;;5018764;28;20028;-64
2022/02/11 14:47:55;;;;;;;7.22;4.95;;;;;;;;;;5029522;28;20389;-64
2022/02/11 14:50:20;;;;;;;7.78;5.57;;;;;;;;;;5024916;28;20026;-65
2022/02/11 14:52:46;;;;;;;9.73;6.63;;;;;;;;;;5010610;28;20021;-63
2022/02/11 14:55:12;;;;;;;10.02;6.93;;;;;;;;;;5017986;28;20042;-65
2022/02/11 14:57:38;;;;;;;9.95;6.78;;;;;;;;;;5013186;28;20068;-64
2022/02/11 15:00:03;;;;;;;7.80;5.30;;;;;;;;;;5014886;28;20013;-64
2022/02/11 15:02:28;;;;;;;11.13;6.45;;;;;;;;;;5023950;28;20485;-60
2022/02/11 15:04:54;;;;;;;8.77;4.72;;;;;;;;;;5026695;28;20064;-65
2022/02/11 15:07:19;;;;;;;9.18;6.13;;;;;;;;;;5020893;28;20165;-65
2022/02/11 15:09:45;;;;;;;9.85;6.78;;;;;;;;;;5023438;28;20022;-64
2022/02/11 15:12:10;;;;;;;8.68;5.40;;;;;;;;;;5030568;28;20037;-65
2022/02/11 15:14:35;;;;;;;12.02;6.28;;;;;;;;;;5026946;28;20478;-65
2022/02/11 15:17:01;;;;;;;11.32;6.30;;;;;;;;;;5020420;28;20056;-64
2022/02/11 15:19:26;;;;;;;11.70;6.10;;;;;;;;;;5020100;28;20037;-60
2022/02/11 15:21:51;;;;;;;12.15;7.00;;;;;;;;;;5013560;28;20437;-70
2022/02/11 15:24:17;;;;;;;6.88;5.32;;;;;;;;;;5011351;28;20050;-65
2022/02/11 15:26:42;;;;;;;7.90;4.68;;;;;;;;;;5027571;28;20017;-62
2022/02/11 15:29:07;;;;;;;6.18;3.05;;;;;;;;;;5027467;28;20359;-66
2022/02/11 15:31:33;;;;;;;6.10;4.80;;;;;;;;;;5019537;28;20030;-67
2022/02/11 15:33:58;;;;;;;5.97;3.65;;;;;;;;;;5013322;28;20066;-67
2022/02/11 15:36:23;;;;;;;5.25;3.20;;;;;;;;;;5044403;28;20051;-67
2022/02/11 15:38:48;;;;;;;10.18;3.92;;;;;;;;;;5025152;28;20036;-67
2022/02/11 15:41:14;;;;;;;3.88;3.03;;;;;;;;;;5002461;28;20021;-64
2022/02/11 15:43:39;;;;;;;6.75;5.10;;;;;;;;;;5026643;28;20030;-64
2022/02/11 15:46:05;;;;;;;9.13;4.95;;;;;;;;;;5029390;28;20017;-64
2022/02/11 15:48:33;;;;;;;5.97;3.65;;;;;;;;;;5027224;28;20026;-64
2022/02/11 15:50:59;;;;;;;5.78;2.92;;;;;;;;;;5023776;28;20083;-64
2022/02/11 15:53:25;;;;;;;6.45;2.75;;;;;;;;;;5023889;28;20028;-64
2022/02/11 15:55:50;;;;;;;1.70;0.90;;;;;;;;;;5027134;28;20486;-65
2022/02/11 15:58:16;;;;;;;1.35;0.80;;;;;;;;;;5028752;28;20092;-66
2022/02/11 16:00:41;;;;;;;2.75;1.15;;;;;;;;;;5027179;28;20025;-66
2022/02/11 16:03:06;;;;;;;2.38;1.40;;;;;;;;;;5029571;28;20064;-66
2022/02/11 16:05:32;;;;;;;6.30;0.90;;;;;;;;;;5029729;28;20020;-66
2022/02/11 16:07:57;;;;;;;1.70;0.90;;;;;;;;;;5029405;28;20013;-65
2022/02/11 16:10:23;;;;;;;1.75;1.00;;;;;;;;;;5031099;28;20474;-65
2022/02/11 16:12:49;;;;;;;3.00;0.98;;;;;;;;;;5033290;28;20048;-65
2022/02/11 16:15:15;;;;;;;3.60;1.80;;;;;;;;;;5014922;28;20060;-65
2022/02/11 16:18:03;;;;;;;2.85;1.10;;;;;;;;;;5021496;28;20018;-65
2022/02/11 16:20:26;;;;;;;;;;;;;;;;;;5028172;28;20059;-66
2022/02/11 16:22:51;;;;;;;3.63;1.45;;;;;;;;;;5032283;28;20016;-66
2022/02/11 16:25:16;;;;;;;0.90;0.50;;;;;;;;;;5010577;28;20027;-66
2022/02/11 16:27:41;;;;;;;1.30;0.75;;;;;;;;;;5029441;28;20033;-66
2022/02/11 16:30:07;;;;;;;4.65;1.80;;;;;;;;;;5014664;28;20022;-66
2022/02/11 16:32:32;;;;;;;2.53;1.08;;;;;;;;;;5025955;28;20135;-68
2022/02/11 16:34:58;;;;;;;1.65;0.88;;;;;;;;;;5031783;28;20056;-68
2022/02/11 16:37:23;;;;;;;5.15;1.25;;;;;;;;;;5022153;28;20041;-68
2022/02/11 16:39:48;;;;;;;2.75;1.70;;;;;;;;;;5014242;28;20022;-68
2022/02/11 16:42:14;;;;;;;1.83;0.88;;;;;;;;;;5032263;28;20459;-69
2022/02/11 16:44:39;;;;;;;1.67;0.93;;;;;;;;;;5021649;28;20034;-68
2022/02/11 16:47:05;;;;;;;2.30;0.65;;;;;;;;;;5030781;28;20500;-68
2022/02/11 16:49:30;;;;;;;0.75;0.68;;;;;;;;;;5034780;28;20548;-68
2022/02/11 16:51:55;;;;;;;3.42;0.75;;;;;;;;;;5047652;28;20065;-68
2022/02/11 16:54:21;;;;;;;3.38;1.83;;;;;;;;;;5028028;28;20061;-68
2022/02/11 16:56:46;;;;;;;2.47;0.73;;;;;;;;;;5024633;28;20041;-68
2022/02/11 16:59:15;;;;;;;3.95;1.40;;;;;;;;;;5024407;28;20080;-69
2022/02/11 17:01:40;;;;;;;4.10;2.15;;;;;;;;;;5013964;28;20040;-69
2022/02/11 17:04:06;;;;;;;2.20;1.10;;;;;;;;;;5028410;28;20037;-68
2022/02/11 17:06:31;;;;;;;3.38;0.75;;;;;;;;;;5016121;28;20125;-69
2022/02/11 17:08:58;;;;;;;3.70;1.50;;;;;;;;;;5027689;28;20025;-68
2022/02/11 17:11:24;;;;;;;5.95;2.60;;;;;;;;;;5015091;28;20175;-69
2022/02/11 17:13:49;;;;;;;3.42;1.70;;;;;;;;;;5031953;28;20485;-69
2022/02/11 17:16:14;;;;;;;4.55;1.70;;;;;;;;;;5010644;28;20029;-69
2022/02/11 17:18:40;;;;;;;6.38;2.50;;;;;;;;;;5012216;28;20085;-68
2022/02/11 17:21:05;;;;;;;5.20;2.90;;;;;;;;;;5027314;28;20029;-68
2022/02/11 17:23:31;;;;;;;3.88;1.70;;;;;;;;;;5034493;28;20383;-68
2022/02/11 17:25:57;;;;;;;4.47;2.17;;;;;;;;;;5024258;28;20493;-68
2022/02/11 17:28:22;;;;;;;3.70;1.63;;;;;;;;;;5014135;28;20018;-69
2022/02/11 17:30:48;;;;;;;1.63;1.38;;;;;;;;;;5025864;28;20035;-69
2022/02/11 17:33:13;;;;;;;3.08;2.08;;;;;;;;;;5028019;28;20601;-70
2022/02/11 17:35:39;;;;;;;2.15;1.23;;;;;;;;;;5032987;28;20112;-69
2022/02/11 17:38:04;;;;;;;3.47;2.60;;;;;;;;;;5017744;28;20541;-68
2022/02/11 17:40:29;;;;;;;1.63;1.35;;;;;;;;;;5031301;28;20497;-68
2022/02/11 17:42:54;;;;;;;5.32;1.70;;;;;;;;;;5031529;28;20029;-69
2022/02/11 17:45:19;;;;;;;2.58;1.38;;;;;;;;;;5029263;28;20033;-69
2022/02/11 17:47:45;;;;;;;1.73;1.27;;;;;;;;;;5028941;28;20026;-67
2022/02/11 17:50:10;;;;;;;1.42;0.95;;;;;;;;;;5033976;28;20017;-69
2022/02/11 17:52:36;;;;;;;0.90;0.65;;;;;;;;;;5011884;28;20133;-67
2022/02/11 17:55:01;;;;;;;1.50;0.88;;;;;;;;;;5026990;28;20140;-68
2022/02/11 17:57:27;;;;;;;0.60;0.57;;;;;;;;;;5023658;28;20108;-68
2022/02/11 17:59:53;;;;;;;0.40;0.38;;;;;;;;;;5035828;28;20067;-67
2022/02/11 18:02:18;;;;;;;1.88;1.60;;;;;;;;;;5026138;28;20049;-68
2022/02/11 18:04:43;;;;;;;3.13;1.30;;;;;;;;;;5023905;28;20596;-68
2022/02/11 18:07:09;;;;;;;2.17;1.67;;;;;;;;;;5030364;28;20485;-68
2022/02/11 18:09:34;;;;;;;2.92;1.83;;;;;;;;;;5047032;28;20083;-67
2022/02/11 18:11:59;;;;;;;4.50;3.50;;;;;;;;;;5025707;28;20029;-68
2022/02/11 18:14:24;;;;;;;4.45;3.42;;;;;;;;;;5026684;28;20028;-68